Terminal Aerodrome Forecast
Issued by NWS

Home | Current Version | Previous Version | Text Only | Print | Product List | Glossary On
Versions: 1 2 3 4 5 6 7 8 9 10 11 12 13 14 15
000
FTUS45 KRIW 180500
TAFRKS
TAF
KRKS 180535Z 1806/1906 04014KT P6SM VCSH SCT025 BKN040
      TEMPO 1806/1810 BKN025
     FM181100 29008KT P6SM VCSH SCT030 BKN045
     FM181700 36010KT P6SM SCT040 BKN090
     FM190100 02012G18KT P6SM VCSH SCT025 BKN040=

USA.gov is the U.S. government's official web portal to all federal, state and local government web resources and services.